sensor_id;sensor_type;location;lat;lon;timestamp;temperature;humidity
30037;DHT22;36325;51.512;-0.382;2023-04-09T00:02:13;9.20;99.90
30037;DHT22;36325;51.512;-0.382;2023-04-09T00:07:09;9.20;99.90
30037;DHT22;36325;51.512;-0.382;2023-04-09T00:09:37;9.20;99.90
30037;DHT22;36325;51.512;-0.382;2023-04-09T00:12:04;9.20;99.90
30037;DHT22;36325;51.512;-0.382;2023-04-09T00:14:31;9.20;99.90
30037;DHT22;36325;51.512;-0.382;2023-04-09T00:17:00;9.20;99.90
30037;DHT22;36325;51.512;-0.382;2023-04-09T00:19:30;9.20;99.90
30037;DHT22;36325;51.512;-0.382;2023-04-09T00:22:00;9.30;99.90
30037;DHT22;36325;51.512;-0.382;2023-04-09T00:24:28;9.20;99.90
30037;DHT22;36325;51.512;-0.382;2023-04-09T00:26:55;9.20;99.90
30037;DHT22;36325;51.512;-0.382;2023-04-09T00:29:23;9.20;99.90
30037;DHT22;36325;51.512;-0.382;2023-04-09T00:31:50;9.20;99.90
30037;DHT22;36325;51.512;-0.382;2023-04-09T00:34:22;9.20;99.90
30037;DHT22;36325;51.512;-0.382;2023-04-09T00:36:49;9.10;99.90
30037;DHT22;36325;51.512;-0.382;2023-04-09T00:39:17;9.10;99.90
30037;DHT22;36325;51.512;-0.382;2023-04-09T00:41:45;9.10;99.90
30037;DHT22;36325;51.512;-0.382;2023-04-09T00:46:41;9.10;99.90
30037;DHT22;36325;51.512;-0.382;2023-04-09T00:51:36;9.00;99.90
30037;DHT22;36325;51.512;-0.382;2023-04-09T00:54:04;9.00;99.90
30037;DHT22;36325;51.512;-0.382;2023-04-09T00:56:33;9.00;99.90
30037;DHT22;36325;51.512;-0.382;2023-04-09T00:59:02;9.00;99.90
30037;DHT22;36325;51.512;-0.382;2023-04-09T01:03:57;8.90;99.90
30037;DHT22;36325;51.512;-0.382;2023-04-09T01:09:05;8.90;99.90
30037;DHT22;36325;51.512;-0.382;2023-04-09T01:14:23;8.90;99.90
30037;DHT22;36325;51.512;-0.382;2023-04-09T01:16:59;8.90;99.90
30037;DHT22;36325;51.512;-0.382;2023-04-09T01:25:32;8.90;99.90
30037;DHT22;36325;51.512;-0.382;2023-04-09T01:28:20;9.00;99.90
30037;DHT22;36325;51.512;-0.382;2023-04-09T01:30:57;9.00;99.90
30037;DHT22;36325;51.512;-0.382;2023-04-09T01:33:26;9.10;99.90
30037;DHT22;36325;51.512;-0.382;2023-04-09T01:35:54;9.20;99.90
30037;DHT22;36325;51.512;-0.382;2023-04-09T01:38:22;9.20;99.90
30037;DHT22;36325;51.512;-0.382;2023-04-09T01:43:20;9.20;99.90
30037;DHT22;36325;51.512;-0.382;2023-04-09T01:53:11;9.10;99.90
30037;DHT22;36325;51.512;-0.382;2023-04-09T01:55:39;9.10;99.90
30037;DHT22;36325;51.512;-0.382;2023-04-09T02:00:59;9.20;99.90
30037;DHT22;36325;51.512;-0.382;2023-04-09T02:03:37;9.20;99.90
30037;DHT22;36325;51.512;-0.382;2023-04-09T02:08:46;9.20;99.90
30037;DHT22;36325;51.512;-0.382;2023-04-09T02:13:45;9.10;99.90
30037;DHT22;36325;51.512;-0.382;2023-04-09T02:16:13;9.00;99.90
30037;DHT22;36325;51.512;-0.382;2023-04-09T02:18:41;9.00;99.90
30037;DHT22;36325;51.512;-0.382;2023-04-09T02:21:09;6.20;99.90
30037;DHT22;36325;51.512;-0.382;2023-04-09T02:28:32;8.80;99.90
30037;DHT22;36325;51.512;-0.382;2023-04-09T02:30:59;8.80;99.90
30037;DHT22;36325;51.512;-0.382;2023-04-09T02:33:26;8.80;99.90
30037;DHT22;36325;51.512;-0.382;2023-04-09T02:35:54;8.70;99.90
30037;DHT22;36325;51.512;-0.382;2023-04-09T02:40:49;8.70;99.90
30037;DHT22;36325;51.512;-0.382;2023-04-09T02:43:16;8.60;99.90
30037;DHT22;36325;51.512;-0.382;2023-04-09T02:45:44;8.60;99.90
30037;DHT22;36325;51.512;-0.382;2023-04-09T02:48:11;8.60;99.90
30037;DHT22;36325;51.512;-0.382;2023-04-09T02:53:07;8.60;99.90
30037;DHT22;36325;51.512;-0.382;2023-04-09T02:55:34;8.50;99.90
30037;DHT22;36325;51.512;-0.382;2023-04-09T02:58:01;8.50;99.90
30037;DHT22;36325;51.512;-0.382;2023-04-09T03:00:30;8.50;99.90
30037;DHT22;36325;51.512;-0.382;2023-04-09T03:02:57;8.50;99.90
30037;DHT22;36325;51.512;-0.382;2023-04-09T03:05:25;8.50;99.90
30037;DHT22;36325;51.512;-0.382;2023-04-09T03:07:52;8.40;99.90
30037;DHT22;36325;51.512;-0.382;2023-04-09T03:10:20;8.40;99.90
30037;DHT22;36325;51.512;-0.382;2023-04-09T03:12:47;8.40;99.90
30037;DHT22;36325;51.512;-0.382;2023-04-09T03:15:14;8.40;99.90
30037;DHT22;36325;51.512;-0.382;2023-04-09T03:17:42;8.40;99.90
30037;DHT22;36325;51.512;-0.382;2023-04-09T03:20:10;8.30;99.90
30037;DHT22;36325;51.512;-0.382;2023-04-09T03:22:38;6.90;99.90
30037;DHT22;36325;51.512;-0.382;2023-04-09T03:25:32;8.30;99.90
30037;DHT22;36325;51.512;-0.382;2023-04-09T03:28:08;8.10;99.90
30037;DHT22;36325;51.512;-0.382;2023-04-09T03:30:40;8.20;99.90
30037;DHT22;36325;51.512;-0.382;2023-04-09T03:33:08;8.20;99.90
30037;DHT22;36325;51.512;-0.382;2023-04-09T03:35:45;8.20;99.90
30037;DHT22;36325;51.512;-0.382;2023-04-09T03:38:14;8.20;99.90
30037;DHT22;36325;51.512;-0.382;2023-04-09T03:40:41;8.10;99.90
30037;DHT22;36325;51.512;-0.382;2023-04-09T03:45:40;8.10;99.90
30037;DHT22;36325;51.512;-0.382;2023-04-09T03:48:19;8.00;99.90
30037;DHT22;36325;51.512;-0.382;2023-04-09T03:53:21;8.00;99.90
30037;DHT22;36325;51.512;-0.382;2023-04-09T03:55:49;8.00;99.90
30037;DHT22;36325;51.512;-0.382;2023-04-09T04:03:38;7.90;99.90
30037;DHT22;36325;51.512;-0.382;2023-04-09T04:11:39;7.90;99.90
30037;DHT22;36325;51.512;-0.382;2023-04-09T04:14:06;7.90;99.90
30037;DHT22;36325;51.512;-0.382;2023-04-09T04:19:03;8.00;99.90
30037;DHT22;36325;51.512;-0.382;2023-04-09T04:24:02;8.10;99.90
30037;DHT22;36325;51.512;-0.382;2023-04-09T04:28:57;8.30;99.90
30037;DHT22;36325;51.512;-0.382;2023-04-09T04:31:47;8.30;99.90
30037;DHT22;36325;51.512;-0.382;2023-04-09T04:34:17;8.40;99.90
30037;DHT22;36325;51.512;-0.382;2023-04-09T04:39:19;8.40;99.90
30037;DHT22;36325;51.512;-0.382;2023-04-09T04:41:54;8.40;99.90
30037;DHT22;36325;51.512;-0.382;2023-04-09T04:44:24;8.40;99.90
30037;DHT22;36325;51.512;-0.382;2023-04-09T04:47:03;8.50;99.90
30037;DHT22;36325;51.512;-0.382;2023-04-09T04:49:31;8.40;99.90
30037;DHT22;36325;51.512;-0.382;2023-04-09T04:52:01;8.50;99.90
30037;DHT22;36325;51.512;-0.382;2023-04-09T04:56:57;8.50;99.90
30037;DHT22;36325;51.512;-0.382;2023-04-09T04:59:51;8.40;99.90
30037;DHT22;36325;51.512;-0.382;2023-04-09T05:05:09;8.40;99.90
30037;DHT22;36325;51.512;-0.382;2023-04-09T05:07:43;8.40;99.90
30037;DHT22;36325;51.512;-0.382;2023-04-09T05:10:10;8.40;99.90
30037;DHT22;36325;51.512;-0.382;2023-04-09T05:12:40;8.40;99.90
30037;DHT22;36325;51.512;-0.382;2023-04-09T05:17:37;8.30;99.90
30037;DHT22;36325;51.512;-0.382;2023-04-09T05:20:06;8.30;99.90
30037;DHT22;36325;51.512;-0.382;2023-04-09T05:22:44;8.30;99.90
30037;DHT22;36325;51.512;-0.382;2023-04-09T05:25:12;8.30;99.90
30037;DHT22;36325;51.512;-0.382;2023-04-09T05:27:42;8.30;99.90
30037;DHT22;36325;51.512;-0.382;2023-04-09T05:30:09;8.30;99.90
30037;DHT22;36325;51.512;-0.382;2023-04-09T05:37:39;8.10;99.90
30037;DHT22;36325;51.512;-0.382;2023-04-09T05:40:08;8.10;99.90
30037;DHT22;36325;51.512;-0.382;2023-04-09T05:42:35;8.10;99.90
30037;DHT22;36325;51.512;-0.382;2023-04-09T05:45:13;8.10;99.90
30037;DHT22;36325;51.512;-0.382;2023-04-09T05:55:20;9.70;99.90
30037;DHT22;36325;51.512;-0.382;2023-04-09T05:57:53;8.00;99.90
30037;DHT22;36325;51.512;-0.382;2023-04-09T06:00:20;8.10;99.90
30037;DHT22;36325;51.512;-0.382;2023-04-09T06:02:50;8.20;99.90
30037;DHT22;36325;51.512;-0.382;2023-04-09T06:12:41;8.30;99.90
30037;DHT22;36325;51.512;-0.382;2023-04-09T06:15:09;8.30;99.90
30037;DHT22;36325;51.512;-0.382;2023-04-09T06:17:36;8.30;99.90
30037;DHT22;36325;51.512;-0.382;2023-04-09T06:20:04;8.30;99.90
30037;DHT22;36325;51.512;-0.382;2023-04-09T06:22:31;8.30;99.90
30037;DHT22;36325;51.512;-0.382;2023-04-09T06:27:26;8.50;99.90
30037;DHT22;36325;51.512;-0.382;2023-04-09T06:32:22;8.60;99.90
30037;DHT22;36325;51.512;-0.382;2023-04-09T06:34:49;8.70;99.90
30037;DHT22;36325;51.512;-0.382;2023-04-09T06:39:44;8.80;99.90
30037;DHT22;36325;51.512;-0.382;2023-04-09T06:42:25;8.80;99.90
30037;DHT22;36325;51.512;-0.382;2023-04-09T06:45:14;8.90;99.90
30037;DHT22;36325;51.512;-0.382;2023-04-09T06:47:42;9.00;99.90
30037;DHT22;36325;51.512;-0.382;2023-04-09T06:50:09;9.10;99.90
30037;DHT22;36325;51.512;-0.382;2023-04-09T06:55:04;9.30;99.90
30037;DHT22;36325;51.512;-0.382;2023-04-09T06:57:31;9.50;99.90
30037;DHT22;36325;51.512;-0.382;2023-04-09T06:59:58;9.60;99.90
30037;DHT22;36325;51.512;-0.382;2023-04-09T07:02:25;9.70;99.90
30037;DHT22;36325;51.512;-0.382;2023-04-09T07:07:21;9.90;99.90
30037;DHT22;36325;51.512;-0.382;2023-04-09T07:09:52;10.10;99.90
30037;DHT22;36325;51.512;-0.382;2023-04-09T07:12:30;10.00;99.90
30037;DHT22;36325;51.512;-0.382;2023-04-09T07:15:05;9.90;99.90
30037;DHT22;36325;51.512;-0.382;2023-04-09T07:17:34;10.00;99.90
30037;DHT22;36325;51.512;-0.382;2023-04-09T07:20:02;10.00;99.90
30037;DHT22;36325;51.512;-0.382;2023-04-09T07:22:30;10.00;99.90
30037;DHT22;36325;51.512;-0.382;2023-04-09T07:24:57;10.00;99.90
30037;DHT22;36325;51.512;-0.382;2023-04-09T07:27:25;10.00;99.90
30037;DHT22;36325;51.512;-0.382;2023-04-09T07:29:56;10.00;99.90
30037;DHT22;36325;51.512;-0.382;2023-04-09T07:32:25;9.90;99.90
30037;DHT22;36325;51.512;-0.382;2023-04-09T07:34:54;9.90;99.90
30037;DHT22;36325;51.512;-0.382;2023-04-09T07:39:51;9.90;99.90
30037;DHT22;36325;51.512;-0.382;2023-04-09T07:47:14;9.70;99.90
30037;DHT22;36325;51.512;-0.382;2023-04-09T07:49:42;9.70;99.90
30037;DHT22;36325;51.512;-0.382;2023-04-09T07:52:09;9.70;99.90
30037;DHT22;36325;51.512;-0.382;2023-04-09T07:54:36;9.60;99.90
30037;DHT22;36325;51.512;-0.382;2023-04-09T08:04:26;10.30;99.90
30037;DHT22;36325;51.512;-0.382;2023-04-09T08:09:21;11.20;99.90
30037;DHT22;36325;51.512;-0.382;2023-04-09T08:14:17;11.90;99.90
30037;DHT22;36325;51.512;-0.382;2023-04-09T08:16:46;12.20;99.90
30037;DHT22;36325;51.512;-0.382;2023-04-09T08:19:15;12.50;99.90
30037;DHT22;36325;51.512;-0.382;2023-04-09T08:24:11;12.70;99.90
30037;DHT22;36325;51.512;-0.382;2023-04-09T08:26:40;13.20;99.90
30037;DHT22;36325;51.512;-0.382;2023-04-09T08:29:09;13.40;99.90
30037;DHT22;36325;51.512;-0.382;2023-04-09T08:31:37;13.40;99.90
30037;DHT22;36325;51.512;-0.382;2023-04-09T08:34:05;13.50;99.90
30037;DHT22;36325;51.512;-0.382;2023-04-09T08:36:33;13.70;99.90
30037;DHT22;36325;51.512;-0.382;2023-04-09T08:41:29;14.00;99.90
30037;DHT22;36325;51.512;-0.382;2023-04-09T08:43:57;14.00;99.90
30037;DHT22;36325;51.512;-0.382;2023-04-09T08:46:26;14.30;99.90
30037;DHT22;36325;51.512;-0.382;2023-04-09T08:51:22;14.70;99.90
30037;DHT22;36325;51.512;-0.382;2023-04-09T08:54:00;14.70;99.90
30037;DHT22;36325;51.512;-0.382;2023-04-09T08:56:30;15.00;99.90
30037;DHT22;36325;51.512;-0.382;2023-04-09T09:01:29;15.20;99.90
30037;DHT22;36325;51.512;-0.382;2023-04-09T09:06:30;15.40;99.90
30037;DHT22;36325;51.512;-0.382;2023-04-09T09:09:12;15.50;99.90
30037;DHT22;36325;51.512;-0.382;2023-04-09T09:14:12;16.00;99.90
30037;DHT22;36325;51.512;-0.382;2023-04-09T09:22:01;16.80;99.90
30037;DHT22;36325;51.512;-0.382;2023-04-09T09:24:32;16.90;99.90
30037;DHT22;36325;51.512;-0.382;2023-04-09T09:27:00;17.20;99.90
30037;DHT22;36325;51.512;-0.382;2023-04-09T09:29:28;17.20;99.90
30037;DHT22;36325;51.512;-0.382;2023-04-09T09:31:56;17.10;99.90
30037;DHT22;36325;51.512;-0.382;2023-04-09T09:34:24;16.90;99.90
30037;DHT22;36325;51.512;-0.382;2023-04-09T09:39:20;17.10;99.90
30037;DHT22;36325;51.512;-0.382;2023-04-09T09:42:06;17.10;99.90
30037;DHT22;36325;51.512;-0.382;2023-04-09T09:47:02;17.40;99.90
30037;DHT22;36325;51.512;-0.382;2023-04-09T09:49:30;17.40;99.90
30037;DHT22;36325;51.512;-0.382;2023-04-09T09:51:59;17.20;99.90
30037;DHT22;36325;51.512;-0.382;2023-04-09T09:54:35;17.10;99.90
30037;DHT22;36325;51.512;-0.382;2023-04-09T09:57:07;17.30;99.90
30037;DHT22;36325;51.512;-0.382;2023-04-09T10:00:21;17.20;99.90
30037;DHT22;36325;51.512;-0.382;2023-04-09T10:02:53;17.60;99.90
30037;DHT22;36325;51.512;-0.382;2023-04-09T10:05:23;17.80;99.90
30037;DHT22;36325;51.512;-0.382;2023-04-09T10:07:54;18.40;99.90
30037;DHT22;36325;51.512;-0.382;2023-04-09T10:10:24;18.40;99.90
30037;DHT22;36325;51.512;-0.382;2023-04-09T10:12:52;18.80;99.90
30037;DHT22;36325;51.512;-0.382;2023-04-09T10:15:21;19.20;99.90
30037;DHT22;36325;51.512;-0.382;2023-04-09T10:17:51;19.30;99.90
30037;DHT22;36325;51.512;-0.382;2023-04-09T10:20:25;19.30;99.90
30037;DHT22;36325;51.512;-0.382;2023-04-09T10:22:56;19.30;99.90
30037;DHT22;36325;51.512;-0.382;2023-04-09T10:25:26;19.20;99.90
30037;DHT22;36325;51.512;-0.382;2023-04-09T10:28:01;19.20;99.90
30037;DHT22;36325;51.512;-0.382;2023-04-09T10:30:36;19.40;99.90
30037;DHT22;36325;51.512;-0.382;2023-04-09T10:33:14;19.50;99.90
30037;DHT22;36325;51.512;-0.382;2023-04-09T10:35:45;19.80;99.90
30037;DHT22;36325;51.512;-0.382;2023-04-09T10:38:14;19.80;99.90
30037;DHT22;36325;51.512;-0.382;2023-04-09T10:40:46;20.50;99.90
30037;DHT22;36325;51.512;-0.382;2023-04-09T10:43:18;20.50;99.90
30037;DHT22;36325;51.512;-0.382;2023-04-09T10:45:48;20.80;99.90
30037;DHT22;36325;51.512;-0.382;2023-04-09T10:48:19;20.80;99.90
30037;DHT22;36325;51.512;-0.382;2023-04-09T10:50:49;21.00;99.90
30037;DHT22;36325;51.512;-0.382;2023-04-09T10:53:24;21.10;99.90
30037;DHT22;36325;51.512;-0.382;2023-04-09T10:55:53;21.50;99.90
30037;DHT22;36325;51.512;-0.382;2023-04-09T10:58:20;21.50;99.90
30037;DHT22;36325;51.512;-0.382;2023-04-09T11:00:49;21.40;99.90
30037;DHT22;36325;51.512;-0.382;2023-04-09T11:03:26;21.30;99.90
30037;DHT22;36325;51.512;-0.382;2023-04-09T11:08:30;22.00;99.90
30037;DHT22;36325;51.512;-0.382;2023-04-09T11:10:58;22.80;99.90
30037;DHT22;36325;51.512;-0.382;2023-04-09T11:13:30;22.90;99.90
30037;DHT22;36325;51.512;-0.382;2023-04-09T11:15:58;23.30;99.90
30037;DHT22;36325;51.512;-0.382;2023-04-09T11:18:29;23.40;99.90
30037;DHT22;36325;51.512;-0.382;2023-04-09T11:21:01;23.50;99.90
30037;DHT22;36325;51.512;-0.382;2023-04-09T11:23:31;23.60;99.90
30037;DHT22;36325;51.512;-0.382;2023-04-09T11:25:58;23.90;99.90
30037;DHT22;36325;51.512;-0.382;2023-04-09T11:28:26;24.10;99.90
30037;DHT22;36325;51.512;-0.382;2023-04-09T11:30:53;24.50;99.90
30037;DHT22;36325;51.512;-0.382;2023-04-09T11:33:20;24.40;99.90
30037;DHT22;36325;51.512;-0.382;2023-04-09T11:35:48;24.70;99.90
30037;DHT22;36325;51.512;-0.382;2023-04-09T11:38:15;24.80;99.90
30037;DHT22;36325;51.512;-0.382;2023-04-09T11:40:44;24.80;99.90
30037;DHT22;36325;51.512;-0.382;2023-04-09T11:43:15;24.80;99.90
30037;DHT22;36325;51.512;-0.382;2023-04-09T11:45:43;24.80;99.90
30037;DHT22;36325;51.512;-0.382;2023-04-09T11:48:10;25.30;99.90
30037;DHT22;36325;51.512;-0.382;2023-04-09T11:50:39;25.80;99.90
30037;DHT22;36325;51.512;-0.382;2023-04-09T11:53:20;26.20;99.70
30037;DHT22;36325;51.512;-0.382;2023-04-09T11:55:51;26.50;98.60
30037;DHT22;36325;51.512;-0.382;2023-04-09T11:58:24;27.50;97.60
30037;DHT22;36325;51.512;-0.382;2023-04-09T12:00:53;27.50;97.70
30037;DHT22;36325;51.512;-0.382;2023-04-09T12:03:29;27.70;96.80
30037;DHT22;36325;51.512;-0.382;2023-04-09T12:06:00;27.90;96.10
30037;DHT22;36325;51.512;-0.382;2023-04-09T12:08:29;27.90;94.70
30037;DHT22;36325;51.512;-0.382;2023-04-09T12:11:07;30.90;95.20
30037;DHT22;36325;51.512;-0.382;2023-04-09T12:13:35;27.50;93.80
30037;DHT22;36325;51.512;-0.382;2023-04-09T12:16:03;27.60;94.20
30037;DHT22;36325;51.512;-0.382;2023-04-09T12:18:35;28.40;93.70
30037;DHT22;36325;51.512;-0.382;2023-04-09T12:21:03;28.90;92.50
30037;DHT22;36325;51.512;-0.382;2023-04-09T12:23:31;29.40;91.90
30037;DHT22;36325;51.512;-0.382;2023-04-09T12:26:00;29.80;91.60
30037;DHT22;36325;51.512;-0.382;2023-04-09T12:28:28;30.10;90.50
30037;DHT22;36325;51.512;-0.382;2023-04-09T12:30:56;29.60;90.10
30037;DHT22;36325;51.512;-0.382;2023-04-09T12:33:25;29.40;90.30
30037;DHT22;36325;51.512;-0.382;2023-04-09T12:35:53;29.20;88.70
30037;DHT22;36325;51.512;-0.382;2023-04-09T12:38:22;29.50;88.60
30037;DHT22;36325;51.512;-0.382;2023-04-09T12:40:49;29.90;88.60
30037;DHT22;36325;51.512;-0.382;2023-04-09T12:43:17;30.30;87.10
30037;DHT22;36325;51.512;-0.382;2023-04-09T12:45:45;30.60;86.20
30037;DHT22;36325;51.512;-0.382;2023-04-09T12:48:13;30.70;85.50
30037;DHT22;36325;51.512;-0.382;2023-04-09T12:50:40;30.70;83.90
30037;DHT22;36325;51.512;-0.382;2023-04-09T12:53:08;30.90;82.80
30037;DHT22;36325;51.512;-0.382;2023-04-09T12:55:35;29.90;83.00
30037;DHT22;36325;51.512;-0.382;2023-04-09T12:58:03;28.70;83.90
30037;DHT22;36325;51.512;-0.382;2023-04-09T13:00:31;29.40;83.90
30037;DHT22;36325;51.512;-0.382;2023-04-09T13:02:59;29.70;82.60
30037;DHT22;36325;51.512;-0.382;2023-04-09T13:05:27;29.60;83.20
30037;DHT22;36325;51.512;-0.382;2023-04-09T13:08:01;28.90;83.70
30037;DHT22;36325;51.512;-0.382;2023-04-09T13:10:30;28.90;82.90
30037;DHT22;36325;51.512;-0.382;2023-04-09T13:12:58;29.30;82.30
30037;DHT22;36325;51.512;-0.382;2023-04-09T13:15:26;29.90;80.40
30037;DHT22;36325;51.512;-0.382;2023-04-09T13:17:54;29.90;81.00
30037;DHT22;36325;51.512;-0.382;2023-04-09T13:20:22;30.20;79.90
30037;DHT22;36325;51.512;-0.382;2023-04-09T13:22:50;30.00;79.10
30037;DHT22;36325;51.512;-0.382;2023-04-09T13:25:20;28.70;79.10
30037;DHT22;36325;51.512;-0.382;2023-04-09T13:27:49;28.90;79.80
30037;DHT22;36325;51.512;-0.382;2023-04-09T13:30:16;29.20;80.00
30037;DHT22;36325;51.512;-0.382;2023-04-09T13:32:44;29.90;79.50
30037;DHT22;36325;51.512;-0.382;2023-04-09T13:35:11;30.70;78.70
30037;DHT22;36325;51.512;-0.382;2023-04-09T13:37:39;30.90;77.20
30037;DHT22;36325;51.512;-0.382;2023-04-09T13:40:07;30.90;76.80
30037;DHT22;36325;51.512;-0.382;2023-04-09T13:42:37;31.20;76.60
30037;DHT22;36325;51.512;-0.382;2023-04-09T13:45:04;31.60;76.50
30037;DHT22;36325;51.512;-0.382;2023-04-09T13:47:32;31.80;75.20
30037;DHT22;36325;51.512;-0.382;2023-04-09T13:49:59;31.00;76.00
30037;DHT22;36325;51.512;-0.382;2023-04-09T13:52:26;31.10;75.70
30037;DHT22;36325;51.512;-0.382;2023-04-09T13:54:55;31.20;75.50
30037;DHT22;36325;51.512;-0.382;2023-04-09T13:57:22;31.30;76.20
30037;DHT22;36325;51.512;-0.382;2023-04-09T13:59:49;30.70;75.30
30037;DHT22;36325;51.512;-0.382;2023-04-09T14:02:17;30.70;75.90
30037;DHT22;36325;51.512;-0.382;2023-04-09T14:04:45;30.70;74.70
30037;DHT22;36325;51.512;-0.382;2023-04-09T14:07:12;30.60;74.50
30037;DHT22;36325;51.512;-0.382;2023-04-09T14:09:39;30.70;74.50
30037;DHT22;36325;51.512;-0.382;2023-04-09T14:12:06;30.90;74.10
30037;DHT22;36325;51.512;-0.382;2023-04-09T14:17:02;30.20;72.30
30037;DHT22;36325;51.512;-0.382;2023-04-09T14:19:29;30.20;73.40
30037;DHT22;36325;51.512;-0.382;2023-04-09T14:21:56;30.20;73.10
30037;DHT22;36325;51.512;-0.382;2023-04-09T14:24:23;30.10;73.30
30037;DHT22;36325;51.512;-0.382;2023-04-09T14:26:51;29.60;73.80
30037;DHT22;36325;51.512;-0.382;2023-04-09T14:29:19;28.70;74.30
30037;DHT22;36325;51.512;-0.382;2023-04-09T14:31:47;28.50;74.60
30037;DHT22;36325;51.512;-0.382;2023-04-09T14:34:15;28.10;74.90
30037;DHT22;36325;51.512;-0.382;2023-04-09T14:36:42;27.50;75.50
30037;DHT22;36325;51.512;-0.382;2023-04-09T14:41:37;27.60;75.40
30037;DHT22;36325;51.512;-0.382;2023-04-09T14:44:04;27.30;76.40
30037;DHT22;36325;51.512;-0.382;2023-04-09T14:46:31;27.10;76.60
30037;DHT22;36325;51.512;-0.382;2023-04-09T14:48:59;26.90;76.00
30037;DHT22;36325;51.512;-0.382;2023-04-09T14:51:28;26.80;76.50
30037;DHT22;36325;51.512;-0.382;2023-04-09T14:53:56;27.30;76.00
30037;DHT22;36325;51.512;-0.382;2023-04-09T14:56:23;27.30;76.70
30037;DHT22;36325;51.512;-0.382;2023-04-09T14:58:53;27.20;75.70
30037;DHT22;36325;51.512;-0.382;2023-04-09T15:01:21;27.50;75.40
30037;DHT22;36325;51.512;-0.382;2023-04-09T15:03:48;27.00;75.70
30037;DHT22;36325;51.512;-0.382;2023-04-09T15:06:15;24.90;74.60
30037;DHT22;36325;51.512;-0.382;2023-04-09T15:08:44;25.40;76.50
30037;DHT22;36325;51.512;-0.382;2023-04-09T15:11:15;25.40;77.30
30037;DHT22;36325;51.512;-0.382;2023-04-09T15:13:43;25.00;77.70
30037;DHT22;36325;51.512;-0.382;2023-04-09T15:16:22;24.90;78.10
30037;DHT22;36325;51.512;-0.382;2023-04-09T15:18:53;23.90;78.90
30037;DHT22;36325;51.512;-0.382;2023-04-09T15:21:22;23.90;79.70
30037;DHT22;36325;51.512;-0.382;2023-04-09T15:23:50;23.30;80.00
30037;DHT22;36325;51.512;-0.382;2023-04-09T15:26:18;22.40;80.40
30037;DHT22;36325;51.512;-0.382;2023-04-09T15:28:45;22.10;81.50
30037;DHT22;36325;51.512;-0.382;2023-04-09T15:31:16;22.10;82.30
30037;DHT22;36325;51.512;-0.382;2023-04-09T15:33:43;21.90;84.30
30037;DHT22;36325;51.512;-0.382;2023-04-09T15:36:11;21.70;85.10
30037;DHT22;36325;51.512;-0.382;2023-04-09T15:38:38;21.50;85.60
30037;DHT22;36325;51.512;-0.382;2023-04-09T15:41:06;21.20;86.00
30037;DHT22;36325;51.512;-0.382;2023-04-09T15:43:33;20.90;86.50
30037;DHT22;36325;51.512;-0.382;2023-04-09T15:46:07;18.70;85.30
30037;DHT22;36325;51.512;-0.382;2023-04-09T15:48:35;20.50;87.60
30037;DHT22;36325;51.512;-0.382;2023-04-09T15:51:03;20.00;87.40
30037;DHT22;36325;51.512;-0.382;2023-04-09T15:53:30;20.00;88.40
30037;DHT22;36325;51.512;-0.382;2023-04-09T15:55:58;19.90;88.70
30037;DHT22;36325;51.512;-0.382;2023-04-09T15:58:25;19.70;89.30
30037;DHT22;36325;51.512;-0.382;2023-04-09T16:00:52;19.40;90.00
30037;DHT22;36325;51.512;-0.382;2023-04-09T16:03:19;19.10;89.80
30037;DHT22;36325;51.512;-0.382;2023-04-09T16:05:47;18.90;90.20
30037;DHT22;36325;51.512;-0.382;2023-04-09T16:08:14;18.70;90.50
30037;DHT22;36325;51.512;-0.382;2023-04-09T16:10:41;18.50;91.00
30037;DHT22;36325;51.512;-0.382;2023-04-09T16:13:09;18.40;91.50
30037;DHT22;36325;51.512;-0.382;2023-04-09T16:15:36;17.00;91.60
30037;DHT22;36325;51.512;-0.382;2023-04-09T16:18:03;18.30;92.40
30037;DHT22;36325;51.512;-0.382;2023-04-09T16:20:31;18.10;93.70
30037;DHT22;36325;51.512;-0.382;2023-04-09T16:22:58;18.90;94.10
30037;DHT22;36325;51.512;-0.382;2023-04-09T16:25:25;16.90;94.20
30037;DHT22;36325;51.512;-0.382;2023-04-09T16:27:52;17.70;95.30
30037;DHT22;36325;51.512;-0.382;2023-04-09T16:30:20;20.50;96.50
30037;DHT22;36325;51.512;-0.382;2023-04-09T16:32:47;17.50;95.70
30037;DHT22;36325;51.512;-0.382;2023-04-09T16:35:14;17.40;95.90
30037;DHT22;36325;51.512;-0.382;2023-04-09T16:37:42;17.30;96.10
30037;DHT22;36325;51.512;-0.382;2023-04-09T16:40:09;17.10;96.80
30037;DHT22;36325;51.512;-0.382;2023-04-09T16:42:36;17.00;96.80
30037;DHT22;36325;51.512;-0.382;2023-04-09T16:45:04;16.90;97.00
30037;DHT22;36325;51.512;-0.382;2023-04-09T16:47:32;16.90;97.30
30037;DHT22;36325;51.512;-0.382;2023-04-09T16:50:00;16.80;97.60
30037;DHT22;36325;51.512;-0.382;2023-04-09T16:52:29;16.70;98.00
30037;DHT22;36325;51.512;-0.382;2023-04-09T16:54:56;16.60;98.10
30037;DHT22;36325;51.512;-0.382;2023-04-09T16:57:24;16.40;98.30
30037;DHT22;36325;51.512;-0.382;2023-04-09T16:59:51;16.20;98.00
30037;DHT22;36325;51.512;-0.382;2023-04-09T17:02:18;16.10;98.10
30037;DHT22;36325;51.512;-0.382;2023-04-09T17:04:50;16.00;98.30
30037;DHT22;36325;51.512;-0.382;2023-04-09T17:07:17;15.90;98.50
30037;DHT22;36325;51.512;-0.382;2023-04-09T17:14:40;15.60;99.50
30037;DHT22;36325;51.512;-0.382;2023-04-09T17:17:10;15.50;99.90
30037;DHT22;36325;51.512;-0.382;2023-04-09T17:19:38;15.40;99.90
30037;DHT22;36325;51.512;-0.382;2023-04-09T17:22:07;15.40;99.90
30037;DHT22;36325;51.512;-0.382;2023-04-09T17:24:36;15.30;99.90
30037;DHT22;36325;51.512;-0.382;2023-04-09T17:27:04;15.20;99.90
30037;DHT22;36325;51.512;-0.382;2023-04-09T17:31:59;15.10;99.90
30037;DHT22;36325;51.512;-0.382;2023-04-09T17:34:29;15.00;99.90
30037;DHT22;36325;51.512;-0.382;2023-04-09T17:36:59;15.00;99.90
30037;DHT22;36325;51.512;-0.382;2023-04-09T17:39:27;15.00;99.90
30037;DHT22;36325;51.512;-0.382;2023-04-09T17:41:57;15.00;99.90
30037;DHT22;36325;51.512;-0.382;2023-04-09T17:44:26;15.00;99.90
30037;DHT22;36325;51.512;-0.382;2023-04-09T17:46:54;14.90;99.90
30037;DHT22;36325;51.512;-0.382;2023-04-09T17:49:21;14.90;99.90
30037;DHT22;36325;51.512;-0.382;2023-04-09T17:54:16;14.80;99.90
30037;DHT22;36325;51.512;-0.382;2023-04-09T17:56:44;14.80;99.90
30037;DHT22;36325;51.512;-0.382;2023-04-09T17:59:12;14.80;99.90
30037;DHT22;36325;51.512;-0.382;2023-04-09T18:01:39;14.70;99.90
30037;DHT22;36325;51.512;-0.382;2023-04-09T18:04:06;14.60;99.90
30037;DHT22;36325;51.512;-0.382;2023-04-09T18:06:34;14.60;99.90
30037;DHT22;36325;51.512;-0.382;2023-04-09T18:09:01;14.60;99.90
30037;DHT22;36325;51.512;-0.382;2023-04-09T18:11:28;14.50;99.90
30037;DHT22;36325;51.512;-0.382;2023-04-09T18:13:56;14.40;99.90
30037;DHT22;36325;51.512;-0.382;2023-04-09T18:16:23;14.40;99.90
30037;DHT22;36325;51.512;-0.382;2023-04-09T18:18:50;14.40;99.90
30037;DHT22;36325;51.512;-0.382;2023-04-09T18:21:18;14.30;99.90
30037;DHT22;36325;51.512;-0.382;2023-04-09T18:23:45;14.30;99.90
30037;DHT22;36325;51.512;-0.382;2023-04-09T18:26:12;14.30;99.90
30037;DHT22;36325;51.512;-0.382;2023-04-09T18:28:39;14.20;99.90
30037;DHT22;36325;51.512;-0.382;2023-04-09T18:31:09;14.20;99.90